sensor_id;sensor_type;location;lat;lon;timestamp;P1;durP1;ratioP1;P2;durP2;ratioP2
4672;SDS011;61885;53.560;9.940;2022-09-09T00:00:46;23.23;;;11.83;;
4672;SDS011;61885;53.560;9.940;2022-09-09T00:03:22;21.47;;;10.90;;
4672;SDS011;61885;53.560;9.940;2022-09-09T00:05:57;24.80;;;12.33;;
4672;SDS011;61885;53.560;9.940;2022-09-09T00:08:33;23.33;;;10.80;;
4672;SDS011;61885;53.560;9.940;2022-09-09T00:11:11;25.30;;;12.83;;
4672;SDS011;61885;53.560;9.940;2022-09-09T00:13:46;19.90;;;10.40;;
4672;SDS011;61885;53.560;9.940;2022-09-09T00:16:22;26.13;;;12.63;;
4672;SDS011;61885;53.560;9.940;2022-09-09T00:18:56;22.20;;;11.70;;
4672;SDS011;61885;53.560;9.940;2022-09-09T00:21:32;20.53;;;10.57;;
4672;SDS011;61885;53.560;9.940;2022-09-09T00:24:08;24.30;;;11.43;;
4672;SDS011;61885;53.560;9.940;2022-09-09T00:26:45;24.63;;;11.03;;
4672;SDS011;61885;53.560;9.940;2022-09-09T00:29:23;24.17;;;11.50;;
4672;SDS011;61885;53.560;9.940;2022-09-09T00:32:07;25.47;;;13.13;;
4672;SDS011;61885;53.560;9.940;2022-09-09T00:34:47;25.80;;;13.03;;
4672;SDS011;61885;53.560;9.940;2022-09-09T00:37:18;21.23;;;11.13;;
4672;SDS011;61885;53.560;9.940;2022-09-09T00:39:49;26.30;;;12.63;;
4672;SDS011;61885;53.560;9.940;2022-09-09T00:42:24;27.00;;;12.70;;
4672;SDS011;61885;53.560;9.940;2022-09-09T00:44:59;25.33;;;12.60;;
4672;SDS011;61885;53.560;9.940;2022-09-09T00:47:40;28.83;;;13.30;;
4672;SDS011;61885;53.560;9.940;2022-09-09T00:50:31;28.00;;;13.77;;
4672;SDS011;61885;53.560;9.940;2022-09-09T00:53:13;25.10;;;13.60;;
4672;SDS011;61885;53.560;9.940;2022-09-09T00:55:53;32.30;;;14.33;;
4672;SDS011;61885;53.560;9.940;2022-09-09T00:58:30;30.70;;;14.10;;
4672;SDS011;61885;53.560;9.940;2022-09-09T01:01:03;33.20;;;14.60;;
4672;SDS011;61885;53.560;9.940;2022-09-09T01:03:35;32.00;;;14.27;;
4672;SDS011;61885;53.560;9.940;2022-09-09T01:06:14;33.70;;;14.97;;
4672;SDS011;61885;53.560;9.940;2022-09-09T01:09:00;33.80;;;14.37;;
4672;SDS011;61885;53.560;9.940;2022-09-09T01:11:40;34.63;;;15.37;;
4672;SDS011;61885;53.560;9.940;2022-09-09T01:14:18;31.57;;;14.00;;
4672;SDS011;61885;53.560;9.940;2022-09-09T01:17:02;31.73;;;14.87;;
4672;SDS011;61885;53.560;9.940;2022-09-09T01:19:44;31.53;;;13.57;;
4672;SDS011;61885;53.560;9.940;2022-09-09T01:22:22;19.97;;;11.80;;
4672;SDS011;61885;53.560;9.940;2022-09-09T01:25:13;30.30;;;13.00;;
4672;SDS011;61885;53.560;9.940;2022-09-09T01:27:54;23.77;;;11.63;;
4672;SDS011;61885;53.560;9.940;2022-09-09T01:30:26;30.43;;;11.97;;
4672;SDS011;61885;53.560;9.940;2022-09-09T01:32:58;31.60;;;12.07;;
4672;SDS011;61885;53.560;9.940;2022-09-09T01:35:33;29.30;;;12.70;;
4672;SDS011;61885;53.560;9.940;2022-09-09T01:38:08;26.43;;;11.90;;
4672;SDS011;61885;53.560;9.940;2022-09-09T01:40:38;27.13;;;12.70;;
4672;SDS011;61885;53.560;9.940;2022-09-09T01:43:10;27.70;;;12.30;;
4672;SDS011;61885;53.560;9.940;2022-09-09T01:45:40;32.53;;;13.40;;
4672;SDS011;61885;53.560;9.940;2022-09-09T01:48:11;31.73;;;14.00;;
4672;SDS011;61885;53.560;9.940;2022-09-09T01:50:40;27.83;;;12.30;;
4672;SDS011;61885;53.560;9.940;2022-09-09T01:53:10;31.30;;;12.37;;
4672;SDS011;61885;53.560;9.940;2022-09-09T01:55:42;31.03;;;14.17;;
4672;SDS011;61885;53.560;9.940;2022-09-09T01:58:24;37.00;;;14.60;;
4672;SDS011;61885;53.560;9.940;2022-09-09T02:01:02;30.60;;;12.80;;
4672;SDS011;61885;53.560;9.940;2022-09-09T02:03:38;29.37;;;12.87;;
4672;SDS011;61885;53.560;9.940;2022-09-09T02:06:11;36.63;;;14.60;;
4672;SDS011;61885;53.560;9.940;2022-09-09T02:08:49;41.63;;;14.80;;
4672;SDS011;61885;53.560;9.940;2022-09-09T02:11:21;30.43;;;13.93;;
4672;SDS011;61885;53.560;9.940;2022-09-09T02:13:56;30.00;;;12.73;;
4672;SDS011;61885;53.560;9.940;2022-09-09T02:16:31;31.60;;;13.97;;
4672;SDS011;61885;53.560;9.940;2022-09-09T02:19:07;34.13;;;13.50;;
4672;SDS011;61885;53.560;9.940;2022-09-09T02:21:41;29.73;;;13.30;;
4672;SDS011;61885;53.560;9.940;2022-09-09T02:24:14;41.83;;;14.40;;
4672;SDS011;61885;53.560;9.940;2022-09-09T02:26:46;26.93;;;11.93;;
4672;SDS011;61885;53.560;9.940;2022-09-09T02:29:22;28.93;;;12.60;;
4672;SDS011;61885;53.560;9.940;2022-09-09T02:31:55;27.93;;;13.17;;
4672;SDS011;61885;53.560;9.940;2022-09-09T02:34:29;25.80;;;11.63;;
4672;SDS011;61885;53.560;9.940;2022-09-09T02:37:03;27.57;;;11.60;;
4672;SDS011;61885;53.560;9.940;2022-09-09T02:39:35;29.00;;;10.83;;
4672;SDS011;61885;53.560;9.940;2022-09-09T02:42:04;31.57;;;11.60;;
4672;SDS011;61885;53.560;9.940;2022-09-09T02:44:37;22.47;;;11.53;;
4672;SDS011;61885;53.560;9.940;2022-09-09T02:47:15;22.43;;;10.77;;
4672;SDS011;61885;53.560;9.940;2022-09-09T02:49:57;25.40;;;11.20;;
4672;SDS011;61885;53.560;9.940;2022-09-09T02:52:33;21.20;;;10.70;;
4672;SDS011;61885;53.560;9.940;2022-09-09T02:55:12;25.90;;;11.93;;
4672;SDS011;61885;53.560;9.940;2022-09-09T02:57:49;24.73;;;11.73;;
4672;SDS011;61885;53.560;9.940;2022-09-09T03:00:26;20.43;;;10.27;;
4672;SDS011;61885;53.560;9.940;2022-09-09T03:02:57;26.87;;;11.80;;
4672;SDS011;61885;53.560;9.940;2022-09-09T03:05:26;20.90;;;11.23;;
4672;SDS011;61885;53.560;9.940;2022-09-09T03:07:56;20.83;;;10.57;;
4672;SDS011;61885;53.560;9.940;2022-09-09T03:10:25;20.70;;;11.03;;
4672;SDS011;61885;53.560;9.940;2022-09-09T03:12:55;24.50;;;10.97;;
4672;SDS011;61885;53.560;9.940;2022-09-09T03:15:27;16.33;;;8.90;;
4672;SDS011;61885;53.560;9.940;2022-09-09T03:17:57;21.20;;;11.00;;
4672;SDS011;61885;53.560;9.940;2022-09-09T03:20:27;25.63;;;11.20;;
4672;SDS011;61885;53.560;9.940;2022-09-09T03:23:01;19.40;;;9.97;;
4672;SDS011;61885;53.560;9.940;2022-09-09T03:25:31;21.03;;;10.13;;
4672;SDS011;61885;53.560;9.940;2022-09-09T03:28:01;26.13;;;10.27;;
4672;SDS011;61885;53.560;9.940;2022-09-09T03:30:33;23.03;;;11.40;;
4672;SDS011;61885;53.560;9.940;2022-09-09T03:33:03;21.70;;;10.80;;
4672;SDS011;61885;53.560;9.940;2022-09-09T03:35:33;18.83;;;9.80;;
4672;SDS011;61885;53.560;9.940;2022-09-09T03:38:02;16.43;;;9.33;;
4672;SDS011;61885;53.560;9.940;2022-09-09T03:40:32;26.00;;;9.67;;
4672;SDS011;61885;53.560;9.940;2022-09-09T03:43:01;25.33;;;10.30;;
4672;SDS011;61885;53.560;9.940;2022-09-09T03:45:33;24.63;;;9.43;;
4672;SDS011;61885;53.560;9.940;2022-09-09T03:48:06;21.50;;;10.07;;
4672;SDS011;61885;53.560;9.940;2022-09-09T03:50:38;18.90;;;9.03;;
4672;SDS011;61885;53.560;9.940;2022-09-09T03:53:07;20.63;;;10.10;;
4672;SDS011;61885;53.560;9.940;2022-09-09T03:55:37;17.47;;;9.57;;
4672;SDS011;61885;53.560;9.940;2022-09-09T03:58:07;20.43;;;11.00;;
4672;SDS011;61885;53.560;9.940;2022-09-09T04:00:39;17.83;;;9.90;;
4672;SDS011;61885;53.560;9.940;2022-09-09T04:03:10;17.57;;;9.60;;
4672;SDS011;61885;53.560;9.940;2022-09-09T04:05:41;16.13;;;9.03;;
4672;SDS011;61885;53.560;9.940;2022-09-09T04:08:11;20.53;;;8.90;;
4672;SDS011;61885;53.560;9.940;2022-09-09T04:10:41;14.97;;;8.10;;
4672;SDS011;61885;53.560;9.940;2022-09-09T04:13:11;16.07;;;8.90;;
4672;SDS011;61885;53.560;9.940;2022-09-09T04:15:44;20.40;;;9.37;;
4672;SDS011;61885;53.560;9.940;2022-09-09T04:18:19;16.70;;;9.03;;
4672;SDS011;61885;53.560;9.940;2022-09-09T04:20:50;19.37;;;9.67;;
4672;SDS011;61885;53.560;9.940;2022-09-09T04:23:21;19.50;;;9.13;;
4672;SDS011;61885;53.560;9.940;2022-09-09T04:25:51;17.17;;;9.33;;
4672;SDS011;61885;53.560;9.940;2022-09-09T04:28:22;16.50;;;9.20;;
4672;SDS011;61885;53.560;9.940;2022-09-09T04:30:56;17.60;;;9.10;;
4672;SDS011;61885;53.560;9.940;2022-09-09T04:33:26;18.70;;;9.40;;
4672;SDS011;61885;53.560;9.940;2022-09-09T04:35:56;15.83;;;8.97;;
4672;SDS011;61885;53.560;9.940;2022-09-09T04:38:25;22.50;;;10.20;;
4672;SDS011;61885;53.560;9.940;2022-09-09T04:40:55;13.67;;;8.13;;
4672;SDS011;61885;53.560;9.940;2022-09-09T04:46:11;14.93;;;8.40;;
4672;SDS011;61885;53.560;9.940;2022-09-09T04:48:43;17.10;;;9.47;;
4672;SDS011;61885;53.560;9.940;2022-09-09T04:51:13;13.47;;;8.23;;
4672;SDS011;61885;53.560;9.940;2022-09-09T04:53:43;15.77;;;8.30;;
4672;SDS011;61885;53.560;9.940;2022-09-09T04:56:14;13.37;;;7.80;;
4672;SDS011;61885;53.560;9.940;2022-09-09T04:58:45;18.73;;;7.50;;
4672;SDS011;61885;53.560;9.940;2022-09-09T05:01:17;13.10;;;7.83;;
4672;SDS011;61885;53.560;9.940;2022-09-09T05:03:49;12.70;;;7.83;;
4672;SDS011;61885;53.560;9.940;2022-09-09T05:06:19;15.20;;;8.03;;
4672;SDS011;61885;53.560;9.940;2022-09-09T05:08:50;13.50;;;7.13;;
4672;SDS011;61885;53.560;9.940;2022-09-09T05:11:20;16.30;;;8.30;;
4672;SDS011;61885;53.560;9.940;2022-09-09T05:13:52;15.57;;;7.53;;
4672;SDS011;61885;53.560;9.940;2022-09-09T05:16:25;12.40;;;7.50;;
4672;SDS011;61885;53.560;9.940;2022-09-09T05:18:54;13.33;;;7.67;;
4672;SDS011;61885;53.560;9.940;2022-09-09T05:21:25;17.07;;;7.70;;
4672;SDS011;61885;53.560;9.940;2022-09-09T05:23:56;10.83;;;6.97;;
4672;SDS011;61885;53.560;9.940;2022-09-09T05:26:26;12.60;;;7.10;;
4672;SDS011;61885;53.560;9.940;2022-09-09T05:28:56;16.63;;;7.87;;
4672;SDS011;61885;53.560;9.940;2022-09-09T05:31:29;11.73;;;6.73;;
4672;SDS011;61885;53.560;9.940;2022-09-09T05:33:59;11.30;;;7.57;;
4672;SDS011;61885;53.560;9.940;2022-09-09T05:36:28;18.30;;;6.93;;
4672;SDS011;61885;53.560;9.940;2022-09-09T05:38:58;11.30;;;6.70;;
4672;SDS011;61885;53.560;9.940;2022-09-09T05:41:28;15.63;;;7.60;;
4672;SDS011;61885;53.560;9.940;2022-09-09T05:43:57;14.87;;;8.50;;
4672;SDS011;61885;53.560;9.940;2022-09-09T05:46:30;9.87;;;6.63;;
4672;SDS011;61885;53.560;9.940;2022-09-09T05:48:59;8.50;;;6.57;;
4672;SDS011;61885;53.560;9.940;2022-09-09T05:51:31;11.10;;;6.70;;
4672;SDS011;61885;53.560;9.940;2022-09-09T05:54:01;10.67;;;6.70;;
4672;SDS011;61885;53.560;9.940;2022-09-09T05:56:30;9.60;;;6.30;;
4672;SDS011;61885;53.560;9.940;2022-09-09T05:59:00;12.33;;;6.53;;
4672;SDS011;61885;53.560;9.940;2022-09-09T06:01:33;13.47;;;7.77;;
4672;SDS011;61885;53.560;9.940;2022-09-09T06:04:06;9.00;;;5.90;;
4672;SDS011;61885;53.560;9.940;2022-09-09T06:06:36;10.87;;;6.60;;
4672;SDS011;61885;53.560;9.940;2022-09-09T06:09:08;13.27;;;6.37;;
4672;SDS011;61885;53.560;9.940;2022-09-09T06:11:41;8.50;;;6.13;;
4672;SDS011;61885;53.560;9.940;2022-09-09T06:14:11;7.20;;;5.33;;
4672;SDS011;61885;53.560;9.940;2022-09-09T06:16:43;9.80;;;6.27;;
4672;SDS011;61885;53.560;9.940;2022-09-09T06:19:13;9.33;;;6.17;;
4672;SDS011;61885;53.560;9.940;2022-09-09T06:21:42;8.23;;;5.73;;
4672;SDS011;61885;53.560;9.940;2022-09-09T06:24:13;8.80;;;5.60;;
4672;SDS011;61885;53.560;9.940;2022-09-09T06:26:45;6.97;;;6.03;;
4672;SDS011;61885;53.560;9.940;2022-09-09T06:29:14;12.67;;;6.40;;
4672;SDS011;61885;53.560;9.940;2022-09-09T06:31:47;7.70;;;5.57;;
4672;SDS011;61885;53.560;9.940;2022-09-09T06:34:16;6.07;;;5.13;;
4672;SDS011;61885;53.560;9.940;2022-09-09T06:36:46;8.30;;;5.30;;
4672;SDS011;61885;53.560;9.940;2022-09-09T06:39:15;11.37;;;5.83;;
4672;SDS011;61885;53.560;9.940;2022-09-09T06:41:47;6.37;;;4.90;;
4672;SDS011;61885;53.560;9.940;2022-09-09T06:44:19;9.17;;;5.60;;
4672;SDS011;61885;53.560;9.940;2022-09-09T06:46:51;5.30;;;4.73;;
4672;SDS011;61885;53.560;9.940;2022-09-09T06:49:21;6.83;;;5.37;;
4672;SDS011;61885;53.560;9.940;2022-09-09T06:51:50;5.70;;;4.67;;
4672;SDS011;61885;53.560;9.940;2022-09-09T06:54:20;6.37;;;4.70;;
4672;SDS011;61885;53.560;9.940;2022-09-09T06:56:49;6.93;;;5.13;;
4672;SDS011;61885;53.560;9.940;2022-09-09T06:59:19;14.00;;;5.87;;
4672;SDS011;61885;53.560;9.940;2022-09-09T07:01:51;8.07;;;6.27;;
4672;SDS011;61885;53.560;9.940;2022-09-09T07:04:21;7.47;;;4.80;;
4672;SDS011;61885;53.560;9.940;2022-09-09T07:06:51;12.00;;;5.47;;
4672;SDS011;61885;53.560;9.940;2022-09-09T07:09:20;4.03;;;3.70;;
4672;SDS011;61885;53.560;9.940;2022-09-09T07:11:50;5.97;;;3.50;;
4672;SDS011;61885;53.560;9.940;2022-09-09T07:14:20;4.03;;;3.70;;
4672;SDS011;61885;53.560;9.940;2022-09-09T07:16:52;5.17;;;3.73;;
4672;SDS011;61885;53.560;9.940;2022-09-09T07:19:22;7.10;;;3.27;;
4672;SDS011;61885;53.560;9.940;2022-09-09T07:21:51;4.17;;;3.30;;
4672;SDS011;61885;53.560;9.940;2022-09-09T07:24:21;3.60;;;3.30;;
4672;SDS011;61885;53.560;9.940;2022-09-09T07:26:50;5.63;;;3.03;;
4672;SDS011;61885;53.560;9.940;2022-09-09T07:29:20;8.50;;;3.67;;
4672;SDS011;61885;53.560;9.940;2022-09-09T07:31:49;5.53;;;3.03;;
4672;SDS011;61885;53.560;9.940;2022-09-09T07:34:22;6.23;;;3.00;;
4672;SDS011;61885;53.560;9.940;2022-09-09T07:36:52;3.73;;;2.80;;
4672;SDS011;61885;53.560;9.940;2022-09-09T07:39:23;4.07;;;2.63;;
4672;SDS011;61885;53.560;9.940;2022-09-09T07:41:53;5.63;;;2.80;;
4672;SDS011;61885;53.560;9.940;2022-09-09T07:44:24;3.23;;;2.90;;
4672;SDS011;61885;53.560;9.940;2022-09-09T07:46:58;3.73;;;2.37;;
4672;SDS011;61885;53.560;9.940;2022-09-09T07:49:29;9.70;;;2.57;;
4672;SDS011;61885;53.560;9.940;2022-09-09T07:51:58;3.50;;;2.37;;
4672;SDS011;61885;53.560;9.940;2022-09-09T07:54:29;2.70;;;2.50;;
4672;SDS011;61885;53.560;9.940;2022-09-09T07:56:58;5.10;;;2.90;;
4672;SDS011;61885;53.560;9.940;2022-09-09T07:59:29;7.10;;;3.10;;
4672;SDS011;61885;53.560;9.940;2022-09-09T08:02:02;3.40;;;2.57;;
4672;SDS011;61885;53.560;9.940;2022-09-09T08:04:32;3.50;;;2.60;;
4672;SDS011;61885;53.560;9.940;2022-09-09T08:07:01;3.03;;;2.73;;
4672;SDS011;61885;53.560;9.940;2022-09-09T08:09:31;2.13;;;1.93;;
4672;SDS011;61885;53.560;9.940;2022-09-09T08:12:01;2.50;;;2.30;;
4672;SDS011;61885;53.560;9.940;2022-09-09T08:14:32;4.50;;;2.43;;
4672;SDS011;61885;53.560;9.940;2022-09-09T08:17:04;2.50;;;2.30;;
4672;SDS011;61885;53.560;9.940;2022-09-09T08:19:34;4.90;;;3.20;;
4672;SDS011;61885;53.560;9.940;2022-09-09T08:22:04;3.57;;;2.43;;
4672;SDS011;61885;53.560;9.940;2022-09-09T08:24:34;2.73;;;2.47;;
4672;SDS011;61885;53.560;9.940;2022-09-09T08:27:04;3.40;;;1.80;;
4672;SDS011;61885;53.560;9.940;2022-09-09T08:29:33;3.63;;;1.70;;
4672;SDS011;61885;53.560;9.940;2022-09-09T08:32:06;4.70;;;1.87;;
4672;SDS011;61885;53.560;9.940;2022-09-09T08:34:36;2.00;;;1.73;;
4672;SDS011;61885;53.560;9.940;2022-09-09T08:37:07;1.53;;;1.43;;
4672;SDS011;61885;53.560;9.940;2022-09-09T08:39:36;3.50;;;2.13;;
4672;SDS011;61885;53.560;9.940;2022-09-09T08:45:04;2.47;;;1.37;;
4672;SDS011;61885;53.560;9.940;2022-09-09T08:47:56;3.63;;;1.60;;
4672;SDS011;61885;53.560;9.940;2022-09-09T08:50:34;1.33;;;1.23;;
4672;SDS011;61885;53.560;9.940;2022-09-09T08:53:09;2.03;;;1.40;;
4672;SDS011;61885;53.560;9.940;2022-09-09T08:55:47;5.60;;;2.00;;
4672;SDS011;61885;53.560;9.940;2022-09-09T08:58:19;3.10;;;2.00;;
4672;SDS011;61885;53.560;9.940;2022-09-09T09:03:51;1.60;;;1.50;;
4672;SDS011;61885;53.560;9.940;2022-09-09T09:06:31;4.60;;;1.73;;
4672;SDS011;61885;53.560;9.940;2022-09-09T09:09:16;2.13;;;1.93;;
4672;SDS011;61885;53.560;9.940;2022-09-09T09:11:51;2.17;;;1.60;;
4672;SDS011;61885;53.560;9.940;2022-09-09T09:14:27;3.00;;;1.37;;
4672;SDS011;61885;53.560;9.940;2022-09-09T09:17:00;1.73;;;1.50;;
4672;SDS011;61885;53.560;9.940;2022-09-09T09:19:36;2.07;;;1.43;;
4672;SDS011;61885;53.560;9.940;2022-09-09T09:22:10;3.50;;;1.63;;
4672;SDS011;61885;53.560;9.940;2022-09-09T09:24:49;4.30;;;1.50;;
4672;SDS011;61885;53.560;9.940;2022-09-09T09:27:31;1.40;;;1.27;;
4672;SDS011;61885;53.560;9.940;2022-09-09T09:30:10;4.93;;;1.23;;
4672;SDS011;61885;53.560;9.940;2022-09-09T09:32:44;1.57;;;0.93;;
4672;SDS011;61885;53.560;9.940;2022-09-09T09:35:23;2.17;;;1.10;;
4672;SDS011;61885;53.560;9.940;2022-09-09T09:37:52;2.10;;;1.07;;
4672;SDS011;61885;53.560;9.940;2022-09-09T09:40:22;1.00;;;0.90;;
4672;SDS011;61885;53.560;9.940;2022-09-09T09:42:52;3.00;;;1.30;;
4672;SDS011;61885;53.560;9.940;2022-09-09T09:45:26;8.07;;;2.53;;
4672;SDS011;61885;53.560;9.940;2022-09-09T09:48:02;1.63;;;1.10;;
4672;SDS011;61885;53.560;9.940;2022-09-09T09:50:39;3.37;;;0.90;;
4672;SDS011;61885;53.560;9.940;2022-09-09T09:53:19;1.93;;;1.13;;
4672;SDS011;61885;53.560;9.940;2022-09-09T09:55:54;3.67;;;0.63;;
4672;SDS011;61885;53.560;9.940;2022-09-09T09:58:31;1.50;;;1.17;;
4672;SDS011;61885;53.560;9.940;2022-09-09T10:01:01;1.30;;;1.20;;
4672;SDS011;61885;53.560;9.940;2022-09-09T10:03:32;5.20;;;1.20;;
4672;SDS011;61885;53.560;9.940;2022-09-09T10:06:09;1.47;;;1.37;;
4672;SDS011;61885;53.560;9.940;2022-09-09T10:08:44;1.60;;;1.40;;
4672;SDS011;61885;53.560;9.940;2022-09-09T10:11:27;4.30;;;1.70;;
4672;SDS011;61885;53.560;9.940;2022-09-09T10:14:11;3.77;;;2.20;;
4672;SDS011;61885;53.560;9.940;2022-09-09T10:16:55;2.80;;;1.43;;
4672;SDS011;61885;53.560;9.940;2022-09-09T10:19:34;2.90;;;1.97;;
4672;SDS011;61885;53.560;9.940;2022-09-09T10:25:02;5.20;;;1.40;;
4672;SDS011;61885;53.560;9.940;2022-09-09T10:27:44;2.60;;;0.97;;
4672;SDS011;61885;53.560;9.940;2022-09-09T10:30:27;1.40;;;1.20;;
4672;SDS011;61885;53.560;9.940;2022-09-09T10:33:04;2.13;;;1.20;;
4672;SDS011;61885;53.560;9.940;2022-09-09T10:35:40;2.27;;;1.13;;
4672;SDS011;61885;53.560;9.940;2022-09-09T10:38:20;1.30;;;1.20;;
4672;SDS011;61885;53.560;9.940;2022-09-09T10:41:13;2.67;;;1.63;;
4672;SDS011;61885;53.560;9.940;2022-09-09T10:43:57;3.83;;;1.37;;
4672;SDS011;61885;53.560;9.940;2022-09-09T10:46:58;1.60;;;1.50;;
4672;SDS011;61885;53.560;9.940;2022-09-09T10:49:56;3.10;;;1.40;;
4672;SDS011;61885;53.560;9.940;2022-09-09T10:52:40;1.87;;;1.03;;
4672;SDS011;61885;53.560;9.940;2022-09-09T10:55:23;1.27;;;1.17;;
4672;SDS011;61885;53.560;9.940;2022-09-09T10:57:55;2.70;;;1.10;;
4672;SDS011;61885;53.560;9.940;2022-09-09T11:00:30;1.00;;;0.90;;
4672;SDS011;61885;53.560;9.940;2022-09-09T11:03:09;4.70;;;1.10;;
4672;SDS011;61885;53.560;9.940;2022-09-09T11:05:45;1.50;;;1.07;;
4672;SDS011;61885;53.560;9.940;2022-09-09T11:08:19;3.73;;;1.10;;
4672;SDS011;61885;53.560;9.940;2022-09-09T11:10:53;2.80;;;0.90;;
4672;SDS011;61885;53.560;9.940;2022-09-09T11:13:30;1.90;;;1.47;;
4672;SDS011;61885;53.560;9.940;2022-09-09T11:16:13;2.47;;;1.10;;
4672;SDS011;61885;53.560;9.940;2022-09-09T11:18:55;2.43;;;0.97;;
4672;SDS011;61885;53.560;9.940;2022-09-09T11:21:31;1.20;;;1.00;;
4672;SDS011;61885;53.560;9.940;2022-09-09T11:24:08;1.53;;;0.77;;
4672;SDS011;61885;53.560;9.940;2022-09-09T11:26:45;1.57;;;1.23;;
4672;SDS011;61885;53.560;9.940;2022-09-09T11:29:33;1.40;;;1.30;;
4672;SDS011;61885;53.560;9.940;2022-09-09T11:32:19;1.93;;;0.83;;
4672;SDS011;61885;53.560;9.940;2022-09-09T11:35:07;1.03;;;0.83;;
4672;SDS011;61885;53.560;9.940;2022-09-09T11:37:53;2.10;;;1.07;;
4672;SDS011;61885;53.560;9.940;2022-09-09T11:40:38;1.70;;;1.30;;
4672;SDS011;61885;53.560;9.940;2022-09-09T11:43:12;2.30;;;1.20;;
4672;SDS011;61885;53.560;9.940;2022-09-09T11:45:49;1.13;;;1.03;;
4672;SDS011;61885;53.560;9.940;2022-09-09T11:48:23;3.50;;;1.40;;
4672;SDS011;61885;53.560;9.940;2022-09-09T11:50:57;1.70;;;1.30;;
4672;SDS011;61885;53.560;9.940;2022-09-09T11:53:31;4.60;;;2.63;;
4672;SDS011;61885;53.560;9.940;2022-09-09T11:58:54;1.93;;;1.27;;
4672;SDS011;61885;53.560;9.940;2022-09-09T12:01:30;1.40;;;1.30;;
4672;SDS011;61885;53.560;9.940;2022-09-09T12:04:13;2.43;;;1.47;;
4672;SDS011;61885;53.560;9.940;2022-09-09T12:06:59;2.60;;;1.03;;
4672;SDS011;61885;53.560;9.940;2022-09-09T12:09:35;3.30;;;1.47;;
4672;SDS011;61885;53.560;9.940;2022-09-09T12:12:22;1.70;;;1.10;;
4672;SDS011;61885;53.560;9.940;2022-09-09T12:15:00;2.50;;;1.40;;
4672;SDS011;61885;53.560;9.940;2022-09-09T12:17:47;1.63;;;1.10;;
4672;SDS011;61885;53.560;9.940;2022-09-09T12:20:20;2.90;;;1.63;;
4672;SDS011;61885;53.560;9.940;2022-09-09T12:22:55;1.40;;;1.10;;
4672;SDS011;61885;53.560;9.940;2022-09-09T12:25:39;1.97;;;1.40;;
4672;SDS011;61885;53.560;9.940;2022-09-09T12:28:18;1.27;;;1.17;;
4672;SDS011;61885;53.560;9.940;2022-09-09T12:30:55;1.83;;;1.40;;
4672;SDS011;61885;53.560;9.940;2022-09-09T12:33:33;2.90;;;1.67;;
4672;SDS011;61885;53.560;9.940;2022-09-09T12:36:06;1.30;;;1.20;;
4672;SDS011;61885;53.560;9.940;2022-09-09T12:38:41;1.50;;;1.30;;
4672;SDS011;61885;53.560;9.940;2022-09-09T12:41:18;7.07;;;1.47;;
4672;SDS011;61885;53.560;9.940;2022-09-09T12:43:49;1.00;;;0.90;;
4672;SDS011;61885;53.560;9.940;2022-09-09T12:49:20;2.90;;;1.40;;
4672;SDS011;61885;53.560;9.940;2022-09-09T12:51:57;1.30;;;1.20;;
4672;SDS011;61885;53.560;9.940;2022-09-09T12:54:27;3.50;;;1.53;;
4672;SDS011;61885;53.560;9.940;2022-09-09T12:56:56;1.80;;;1.33;;
4672;SDS011;61885;53.560;9.940;2022-09-09T12:59:27;1.40;;;1.30;;
4672;SDS011;61885;53.560;9.940;2022-09-09T13:02:14;2.27;;;1.60;;
4672;SDS011;61885;53.560;9.940;2022-09-09T13:04:47;2.60;;;2.20;;
4672;SDS011;61885;53.560;9.940;2022-09-09T13:07:17;1.70;;;1.60;;
4672;SDS011;61885;53.560;9.940;2022-09-09T13:09:52;1.50;;;1.37;;
4672;SDS011;61885;53.560;9.940;2022-09-09T13:12:22;1.70;;;1.60;;
4672;SDS011;61885;53.560;9.940;2022-09-09T13:14:54;1.93;;;1.83;;
4672;SDS011;61885;53.560;9.940;2022-09-09T13:17:31;4.07;;;1.93;;
4672;SDS011;61885;53.560;9.940;2022-09-09T13:20:02;1.80;;;1.70;;
4672;SDS011;61885;53.560;9.940;2022-09-09T13:22:35;2.70;;;1.50;;
4672;SDS011;61885;53.560;9.940;2022-09-09T13:25:17;1.70;;;1.50;;
4672;SDS011;61885;53.560;9.940;2022-09-09T13:27:52;2.00;;;1.80;;
4672;SDS011;61885;53.560;9.940;2022-09-09T13:30:27;2.43;;;1.80;;
4672;SDS011;61885;53.560;9.940;2022-09-09T13:33:03;4.50;;;1.70;;
4672;SDS011;61885;53.560;9.940;2022-09-09T13:35:35;3.90;;;2.20;;
4672;SDS011;61885;53.560;9.940;2022-09-09T13:38:15;3.93;;;2.10;;
4672;SDS011;61885;53.560;9.940;2022-09-09T13:40:52;1.87;;;1.60;;
4672;SDS011;61885;53.560;9.940;2022-09-09T13:43:25;3.37;;;2.50;;
4672;SDS011;61885;53.560;9.940;2022-09-09T13:45:56;2.53;;;2.30;;
4672;SDS011;61885;53.560;9.940;2022-09-09T13:48:29;2.10;;;2.00;;
4672;SDS011;61885;53.560;9.940;2022-09-09T13:51:00;2.57;;;2.07;;
4672;SDS011;61885;53.560;9.940;2022-09-09T13:53:31;4.97;;;2.80;;
4672;SDS011;61885;53.560;9.940;2022-09-09T13:56:01;3.67;;;2.60;;
4672;SDS011;61885;53.560;9.940;2022-09-09T13:58:31;2.60;;;2.40;;
4672;SDS011;61885;53.560;9.940;2022-09-09T14:01:00;2.47;;;2.27;;
4672;SDS011;61885;53.560;9.940;2022-09-09T14:03:32;2.50;;;2.30;;
4672;SDS011;61885;53.560;9.940;2022-09-09T14:06:03;4.73;;;3.03;;
4672;SDS011;61885;53.560;9.940;2022-09-09T14:08:33;4.73;;;2.90;;
4672;SDS011;61885;53.560;9.940;2022-09-09T14:11:04;3.47;;;2.70;;
4672;SDS011;61885;53.560;9.940;2022-09-09T14:13:34;3.83;;;3.00;;
4672;SDS011;61885;53.560;9.940;2022-09-09T14:16:05;3.70;;;3.40;;
4672;SDS011;61885;53.560;9.940;2022-09-09T14:18:38;5.87;;;3.53;;
4672;SDS011;61885;53.560;9.940;2022-09-09T14:21:08;4.00;;;3.60;;
4672;SDS011;61885;53.560;9.940;2022-09-09T14:23:39;3.80;;;3.50;;
4672;SDS011;61885;53.560;9.940;2022-09-09T14:26:09;5.07;;;3.70;;
4672;SDS011;61885;53.560;9.940;2022-09-09T14:28:39;3.67;;;3.37;;
4672;SDS011;61885;53.560;9.940;2022-09-09T14:31:09;3.80;;;3.47;;
4672;SDS011;61885;53.560;9.940;2022-09-09T14:33:42;3.00;;;2.80;;
4672;SDS011;61885;53.560;9.940;2022-09-09T14:36:12;3.07;;;2.83;;
4672;SDS011;61885;53.560;9.940;2022-09-09T14:38:42;3.13;;;2.63;;
4672;SDS011;61885;53.560;9.940;2022-09-09T14:41:12;2.30;;;2.00;;
4672;SDS011;61885;53.560;9.940;2022-09-09T14:43:43;1.90;;;1.80;;
4672;SDS011;61885;53.560;9.940;2022-09-09T14:46:13;2.33;;;2.17;;
4672;SDS011;61885;53.560;9.940;2022-09-09T14:48:47;2.63;;;2.10;;
4672;SDS011;61885;53.560;9.940;2022-09-09T14:51:17;3.20;;;2.20;;
4672;SDS011;61885;53.560;9.940;2022-09-09T14:53:50;4.10;;;2.40;;
4672;SDS011;61885;53.560;9.940;2022-09-09T14:56:21;2.03;;;1.93;;
4672;SDS011;61885;53.560;9.940;2022-09-09T14:58:53;5.10;;;2.33;;
4672;SDS011;61885;53.560;9.940;2022-09-09T15:01:24;3.57;;;2.37;;
4672;SDS011;61885;53.560;9.940;2022-09-09T15:03:58;2.80;;;2.10;;
4672;SDS011;61885;53.560;9.940;2022-09-09T15:06:30;2.47;;;2.27;;
4672;SDS011;61885;53.560;9.940;2022-09-09T15:09:00;2.07;;;1.93;;
4672;SDS011;61885;53.560;9.940;2022-09-09T15:11:31;3.00;;;1.97;;
4672;SDS011;61885;53.560;9.940;2022-09-09T15:14:04;3.90;;;2.23;;
4672;SDS011;61885;53.560;9.940;2022-09-09T15:16:34;2.00;;;1.90;;
4672;SDS011;61885;53.560;9.940;2022-09-09T15:19:07;1.83;;;1.73;;
4672;SDS011;61885;53.560;9.940;2022-09-09T15:21:38;1.80;;;1.70;;
4672;SDS011;61885;53.560;9.940;2022-09-09T15:24:07;3.20;;;2.30;;
4672;SDS011;61885;53.560;9.940;2022-09-09T15:26:39;4.70;;;2.23;;
4672;SDS011;61885;53.560;9.940;2022-09-09T15:29:08;2.37;;;2.17;;
4672;SDS011;61885;53.560;9.940;2022-09-09T15:31:38;2.30;;;2.10;;
4672;SDS011;61885;53.560;9.940;2022-09-09T15:34:11;5.00;;;2.47;;
4672;SDS011;61885;53.560;9.940;2022-09-09T15:36:41;2.70;;;2.50;;
4672;SDS011;61885;53.560;9.940;2022-09-09T15:39:13;6.03;;;2.83;;
4672;SDS011;61885;53.560;9.940;2022-09-09T15:41:44;5.70;;;2.70;;
4672;SDS011;61885;53.560;9.940;2022-09-09T15:44:15;3.20;;;2.90;;
4672;SDS011;61885;53.560;9.940;2022-09-09T15:46:46;11.73;;;2.50;;
4672;SDS011;61885;53.560;9.940;2022-09-09T15:49:22;2.70;;;2.50;;